PWSweather.com
Personal Weather Stations
Station Observations
BZA01
Southern Palatinate, Bad BergzabernDE 76887

Southern PalatinateBad BergzabernDE 76887

Lat: 49.096, Lon: 8

Elevation: 640

Station Type: Davis VP2+

Latest ConditionsUpdated 3:02:02 AM GMT+01:01 Sunday, Feb 24, 2019
Currently Today's Max Today's Min Today's Average
Temperature 36.3°F2.4°C 39.2°F4.0°C 36.3°F2.4°C 37.7°F3.2°C
Dew Point 16.0°F-8.9°C 18.5°F-7.5°C 14.9°F-9.5°C 16.4°F-8.7°C
Winds 4.9 mph ENE7.9 kmh ENE 6.0 mph -9.7 kmh - - 4.3 mph 6.9 kmh
Wind Gusts 6.0 mph9.7 kmh 11.0 mph17.7 kmh - -
Humidity 43% 43% 40% 41%
Pressure 30.62 in1036.9 mb 30.63 in1037.3 mb 30.61 in1036.6 mb -
Hour Temp Dew Point Humidity Winds Wind Gusts Pressure Precip Precip Rate Daily Precip Total
03:02 AM 36.3°F2.4°C 16.0°F-8.9°C 43% 4.9 mph ENE7.9 kmh ENE 6.0 mph9.7 kmh 30.62 in1036.9 mb - 0.00 in0.0 mm 0.00 in0.0 mm
02:57 AM 36.3°F2.4°C 16.0°F-8.9°C 43% 4.0 mph ENE6.4 kmh ENE 8.1 mph13.0 kmh 30.62 in1036.9 mb - 0.00 in0.0 mm 0.00 in0.0 mm
02:52 AM 36.5°F2.5°C 15.6°F-9.1°C 42% 2.9 mph ENE4.7 kmh ENE 11.0 mph17.7 kmh 30.62 in1036.9 mb - 0.00 in0.0 mm 0.00 in0.0 mm
02:47 AM 36.5°F2.5°C 15.6°F-9.1°C 42% 2.9 mph NE4.7 kmh NE 4.0 mph6.4 kmh 30.61 in1036.6 mb - 0.00 in0.0 mm 0.00 in0.0 mm
02:42 AM 36.7°F2.6°C 15.8°F-9.0°C 42% 2.9 mph ENE4.7 kmh ENE 0.9 mph1.4 kmh 30.61 in1036.6 mb - 0.00 in0.0 mm 0.00 in0.0 mm
02:37 AM 36.9°F2.7°C 15.4°F-9.2°C 41% 4.0 mph ENE6.4 kmh ENE 2.0 mph3.2 kmh 30.62 in1036.9 mb - 0.00 in0.0 mm 0.00 in0.0 mm
02:32 AM 37.0°F2.8°C 15.4°F-9.2°C 41% 4.9 mph NE7.9 kmh NE 2.0 mph3.2 kmh 30.62 in1036.9 mb - 0.00 in0.0 mm 0.00 in0.0 mm
02:27 AM 37.0°F2.8°C 15.4°F-9.2°C 41% 4.9 mph NE7.9 kmh NE 2.9 mph4.7 kmh 30.62 in1036.9 mb - 0.00 in0.0 mm 0.00 in0.0 mm
02:22 AM 37.0°F2.8°C 14.9°F-9.5°C 40% 4.0 mph E6.4 kmh E 4.0 mph6.4 kmh 30.62 in1036.9 mb - 0.00 in0.0 mm 0.00 in0.0 mm
02:17 AM 37.2°F2.9°C 15.1°F-9.4°C 40% 4.9 mph ENE7.9 kmh ENE 4.0 mph6.4 kmh 30.62 in1036.9 mb - 0.00 in0.0 mm 0.00 in0.0 mm
02:12 AM 37.2°F2.9°C 15.1°F-9.4°C 40% 6.0 mph NE9.7 kmh NE 2.9 mph4.7 kmh 30.62 in1036.9 mb - 0.00 in0.0 mm 0.00 in0.0 mm
02:07 AM 37.2°F2.9°C 15.1°F-9.4°C 40% 4.9 mph NE7.9 kmh NE 4.9 mph7.9 kmh 30.62 in1036.9 mb - 0.00 in0.0 mm 0.00 in0.0 mm
02:02 AM 37.4°F3.0°C 15.3°F-9.3°C 40% 4.9 mph ENE7.9 kmh ENE 2.9 mph4.7 kmh 30.62 in1036.9 mb - 0.00 in0.0 mm 0.00 in0.0 mm
01:57 AM 37.4°F3.0°C 15.3°F-9.3°C 40% 4.9 mph NE7.9 kmh NE 4.0 mph6.4 kmh 30.62 in1036.9 mb - 0.00 in0.0 mm 0.00 in0.0 mm
01:52 AM 37.4°F3.0°C 15.3°F-9.3°C 40% 4.9 mph NE7.9 kmh NE 2.0 mph3.2 kmh 30.62 in1036.9 mb - 0.00 in0.0 mm 0.00 in0.0 mm
01:47 AM 37.4°F3.0°C 15.3°F-9.3°C 40% 4.9 mph NNE7.9 kmh NNE 8.9 mph14.3 kmh 30.62 in1036.9 mb - 0.00 in0.0 mm 0.00 in0.0 mm
01:42 AM 37.4°F3.0°C 15.3°F-9.3°C 40% 4.9 mph NE7.9 kmh NE 4.0 mph6.4 kmh 30.62 in1036.9 mb - 0.00 in0.0 mm 0.00 in0.0 mm
01:37 AM 37.4°F3.0°C 15.8°F-9.0°C 41% 4.9 mph ENE7.9 kmh ENE 4.0 mph6.4 kmh 30.62 in1036.9 mb - 0.00 in0.0 mm 0.00 in0.0 mm
01:32 AM 37.6°F3.1°C 16.0°F-8.9°C 41% 4.9 mph E7.9 kmh E 2.9 mph4.7 kmh 30.62 in1036.9 mb - 0.00 in0.0 mm 0.00 in0.0 mm
01:27 AM 37.6°F3.1°C 16.0°F-8.9°C 41% 4.9 mph ENE7.9 kmh ENE 10.1 mph16.3 kmh 30.62 in1036.9 mb - 0.00 in0.0 mm 0.00 in0.0 mm
01:22 AM 37.6°F3.1°C 16.0°F-8.9°C 41% 6.0 mph NE9.7 kmh NE 2.9 mph4.7 kmh 30.62 in1036.9 mb - 0.00 in0.0 mm 0.00 in0.0 mm
01:17 AM 37.6°F3.1°C 16.5°F-8.6°C 42% 4.9 mph NNE7.9 kmh NNE 6.0 mph9.7 kmh 30.63 in1037.3 mb - 0.00 in0.0 mm 0.00 in0.0 mm
01:12 AM 37.6°F3.1°C 16.5°F-8.6°C 42% 4.0 mph ENE6.4 kmh ENE 2.9 mph4.7 kmh 30.62 in1036.9 mb - 0.00 in0.0 mm 0.00 in0.0 mm
01:07 AM 37.8°F3.2°C 16.7°F-8.5°C 42% 4.0 mph NE6.4 kmh NE 2.9 mph4.7 kmh 30.62 in1036.9 mb - 0.00 in0.0 mm 0.00 in0.0 mm
01:02 AM 37.9°F3.3°C 16.9°F-8.4°C 42% 4.0 mph ENE6.4 kmh ENE 4.0 mph6.4 kmh 30.63 in1037.3 mb - 0.00 in0.0 mm 0.00 in0.0 mm
12:57 AM 38.1°F3.4°C 17.1°F-8.3°C 42% 4.0 mph NE6.4 kmh NE 4.0 mph6.4 kmh 30.63 in1037.3 mb - 0.00 in0.0 mm 0.00 in0.0 mm
12:52 AM 38.5°F3.6°C 16.9°F-8.4°C 41% 4.9 mph NE7.9 kmh NE 2.9 mph4.7 kmh 30.63 in1037.3 mb - 0.00 in0.0 mm 0.00 in0.0 mm
12:47 AM 38.7°F3.7°C 17.1°F-8.3°C 41% 4.9 mph ENE7.9 kmh ENE 2.0 mph3.2 kmh 30.63 in1037.3 mb - 0.00 in0.0 mm 0.00 in0.0 mm
12:42 AM 38.7°F3.7°C 17.1°F-8.3°C 41% 4.0 mph ENE6.4 kmh ENE 2.0 mph3.2 kmh 30.63 in1037.3 mb - 0.00 in0.0 mm 0.00 in0.0 mm
12:37 AM 38.7°F3.7°C 17.1°F-8.3°C 41% 4.0 mph NE6.4 kmh NE 4.9 mph7.9 kmh 30.63 in1037.3 mb - 0.00 in0.0 mm 0.00 in0.0 mm
12:32 AM 38.8°F3.8°C 17.8°F-7.9°C 42% 4.0 mph ENE6.4 kmh ENE 2.9 mph4.7 kmh 30.63 in1037.3 mb - 0.00 in0.0 mm 0.00 in0.0 mm
12:27 AM 38.8°F3.8°C 17.8°F-7.9°C 42% 4.0 mph NE6.4 kmh NE 4.0 mph6.4 kmh 30.63 in1037.3 mb - 0.00 in0.0 mm 0.00 in0.0 mm
12:22 AM 39.0°F3.9°C 17.8°F-7.9°C 42% 4.0 mph E6.4 kmh E 4.0 mph6.4 kmh 30.63 in1037.3 mb - 0.00 in0.0 mm 0.00 in0.0 mm
12:17 AM 39.0°F3.9°C 18.5°F-7.5°C 43% 4.0 mph E6.4 kmh E 8.1 mph13.0 kmh 30.63 in1037.3 mb - 0.00 in0.0 mm 0.00 in0.0 mm
12:12 AM 39.0°F3.9°C 18.5°F-7.5°C 43% 2.9 mph NE4.7 kmh NE 2.9 mph4.7 kmh 30.63 in1037.3 mb - 0.00 in0.0 mm 0.00 in0.0 mm
12:07 AM 39.0°F3.9°C 18.5°F-7.5°C 43% 2.9 mph ENE4.7 kmh ENE 0.9 mph1.4 kmh 30.63 in1037.3 mb - 0.00 in0.0 mm 0.00 in0.0 mm
12:02 AM 39.2°F4.0°C 18.5°F-7.5°C 43% 2.9 mph NE4.7 kmh NE 2.0 mph3.2 kmh 30.63 in1037.3 mb - 0.00 in0.0 mm 0.00 in0.0 mm